createdAt,value
2022-10-25T06:11:16.096Z,1.85
2022-10-25T06:16:18.371Z,2.05
2022-10-25T06:21:25.277Z,1.73
2022-10-25T06:26:28.498Z,2.08
2022-10-25T06:31:30.888Z,1.45
2022-10-25T06:36:31.744Z,1.50
2022-10-25T06:41:35.662Z,1.67
2022-10-25T06:47:04.387Z,1.70
2022-10-25T06:52:17.039Z,1.70
2022-10-25T06:57:17.746Z,2.05
2022-10-25T07:02:18.687Z,1.58
2022-10-25T07:07:19.586Z,2.37
2022-10-25T07:12:20.869Z,2.22
2022-10-25T07:17:21.589Z,1.98
2022-10-25T07:22:22.402Z,2.62
2022-10-25T07:27:23.123Z,2.78
2022-10-25T07:32:24.471Z,3.75
2022-10-25T07:37:25.177Z,2.42
2022-10-25T07:42:26.014Z,1.90
2022-10-25T07:47:26.746Z,3.75
2022-10-25T07:52:27.571Z,2.40
2022-10-25T07:57:28.269Z,3.45
2022-10-25T08:02:29.072Z,6.30
2022-10-25T08:07:29.846Z,3.37
2022-10-25T08:12:31.084Z,2.47
2022-10-25T08:17:31.818Z,2.90
2022-10-25T08:22:32.653Z,2.30
2022-10-25T08:27:33.367Z,2.37
2022-10-25T08:32:40.646Z,2.37
2022-10-25T08:37:41.448Z,2.47
2022-10-25T08:43:25.798Z,3.03
2022-10-25T08:48:33.169Z,1.77
2022-10-25T08:53:39.912Z,2.28
2022-10-25T08:58:54.542Z,1.20
2022-10-25T09:03:55.723Z,1.83
2022-10-25T09:16:00.966Z,2.05
2022-10-25T09:21:13.503Z,0.93
2022-10-25T09:26:41.336Z,1.92
2022-10-25T09:31:50.362Z,1.27
2022-10-25T09:36:56.827Z,0.98
2022-10-25T09:41:58.266Z,1.40
2022-10-25T09:48:19.317Z,0.90
2022-10-25T09:53:23.169Z,1.30
2022-10-25T09:58:30.695Z,1.05
2022-10-25T10:03:34.559Z,1.00
2022-10-25T10:08:35.808Z,1.00
2022-10-25T10:13:42.036Z,0.90
2022-10-25T10:18:44.066Z,1.05
2022-10-25T10:24:05.011Z,1.40
2022-10-25T10:29:17.923Z,0.90
2022-10-25T10:34:42.894Z,0.85
2022-10-25T10:39:53.051Z,1.23
2022-10-25T10:45:27.215Z,1.00
2022-10-25T10:50:31.832Z,1.02
2022-10-25T10:55:55.073Z,2.10
2022-10-25T11:01:18.147Z,3.85
2022-10-25T11:06:30.922Z,1.98
2022-10-25T11:11:31.631Z,2.20
2022-10-25T11:16:51.940Z,2.72
2022-10-25T11:23:42.641Z,2.03
2022-10-25T11:29:18.249Z,1.90
2022-10-25T11:39:31.109Z,2.35
2022-10-25T11:46:06.783Z,2.25
2022-10-25T11:51:27.793Z,1.42
2022-10-25T11:57:03.156Z,1.42
2022-10-25T12:03:23.474Z,1.45
2022-10-25T12:09:07.069Z,1.30
2022-10-25T12:14:13.526Z,1.27
2022-10-25T12:19:22.213Z,1.35
2022-10-25T12:24:30.682Z,1.37
2022-10-25T12:29:38.984Z,1.37
2022-10-25T12:34:59.390Z,1.10
2022-10-25T12:40:00.268Z,0.88
2022-10-25T12:45:38.200Z,0.80
2022-10-25T12:53:58.332Z,0.90
2022-10-25T12:59:37.463Z,0.60
2022-10-25T13:05:16.280Z,0.90
2022-10-25T13:10:20.580Z,0.75
2022-10-25T13:15:22.492Z,0.80
2022-10-25T13:22:37.850Z,0.62
2022-10-25T13:28:18.765Z,0.95
2022-10-25T13:33:32.482Z,1.08
2022-10-25T13:38:39.412Z,1.23
2022-10-25T13:44:01.049Z,0.77
2022-10-25T13:49:26.724Z,0.70
2022-10-25T13:54:49.395Z,1.25
2022-10-25T14:00:00.874Z,0.70
2022-10-25T14:05:01.708Z,1.15
2022-10-25T14:10:03.596Z,0.98
2022-10-25T14:15:12.956Z,1.90
2022-10-25T14:20:31.713Z,1.08
2022-10-25T14:25:41.401Z,0.95
2022-10-25T14:30:51.669Z,1.00
2022-10-25T14:35:56.369Z,1.05
2022-10-25T14:41:02.775Z,0.90
2022-10-25T14:46:15.243Z,0.90
2022-10-25T14:51:39.293Z,0.93
2022-10-25T14:56:50.418Z,1.12
2022-10-25T15:02:03.855Z,1.00
2022-10-25T15:07:07.243Z,0.98
2022-10-25T15:12:28.173Z,1.30
2022-10-25T15:17:32.395Z,1.62
2022-10-25T15:22:42.679Z,1.30
2022-10-25T15:27:44.146Z,1.20
2022-10-25T15:32:45.986Z,1.37
2022-10-25T15:37:47.027Z,1.00
2022-10-25T15:42:48.608Z,1.30
2022-10-25T15:47:50.423Z,1.40
2022-10-25T15:52:53.015Z,1.50
2022-10-25T15:57:54.346Z,1.48
2022-10-25T16:02:56.372Z,1.65
2022-10-25T16:07:57.473Z,3.37
2022-10-25T16:13:05.105Z,3.37
2022-10-25T16:18:05.937Z,1.20
2022-10-25T16:23:06.690Z,1.00
2022-10-25T16:28:13.711Z,2.15
2022-10-25T16:33:14.872Z,4.32
2022-10-25T16:38:16.307Z,10.00
2022-10-25T16:43:17.022Z,4.57
2022-10-25T16:48:18.554Z,5.95
2022-10-25T16:53:19.322Z,2.97
2022-10-25T16:58:20.079Z,2.10
2022-10-25T17:03:20.854Z,4.45
2022-10-25T17:08:21.570Z,1.08
2022-10-25T17:13:22.301Z,1.15
2022-10-25T17:18:26.008Z,0.93
2022-10-25T17:23:26.795Z,0.95
2022-10-25T17:28:28.758Z,1.27
2022-10-25T17:33:31.026Z,0.90
2022-10-25T17:38:32.111Z,0.80
2022-10-25T17:43:38.055Z,1.23
2022-10-25T17:48:38.927Z,2.00
2022-10-25T17:53:39.679Z,1.50
2022-10-25T17:58:41.748Z,1.52
2022-10-25T18:03:42.649Z,1.30
2022-10-25T18:08:44.768Z,0.90
2022-10-25T18:13:45.483Z,1.05
2022-10-25T18:18:46.483Z,1.20
2022-10-25T18:23:47.209Z,3.15
2022-10-25T18:28:49.303Z,1.55
2022-10-25T18:33:54.399Z,0.70
2022-10-25T18:38:55.373Z,1.00
2022-10-25T18:43:57.108Z,0.80
2022-10-25T18:48:58.518Z,1.83
2022-10-25T18:54:01.578Z,1.27
2022-10-25T18:59:02.668Z,1.12
2022-10-25T19:04:04.148Z,1.25
2022-10-25T19:09:04.928Z,0.85
2022-10-25T19:14:06.192Z,0.80
2022-10-25T19:19:07.821Z,0.95
2022-10-25T19:24:13.122Z,0.60
2022-10-25T19:29:13.855Z,1.30
2022-10-25T19:34:14.597Z,0.82
2022-10-25T19:39:15.318Z,0.70
2022-10-25T19:44:16.374Z,0.82
2022-10-25T19:49:17.744Z,0.90
2022-10-25T19:54:18.497Z,0.65
2022-10-25T19:59:19.208Z,1.45
2022-10-25T20:04:20.211Z,1.10
2022-10-25T20:09:20.962Z,1.33
2022-10-25T20:14:21.696Z,2.12
2022-10-25T20:19:22.586Z,2.35
2022-10-25T20:24:23.753Z,3.12
2022-10-25T20:29:24.514Z,3.08
2022-10-25T20:34:25.408Z,1.87
2022-10-25T20:39:26.175Z,1.80
2022-10-25T20:44:27.314Z,1.90
2022-10-25T20:49:28.144Z,1.90
2022-10-25T20:54:28.887Z,2.20
2022-10-25T20:59:29.783Z,2.70
2022-10-25T21:04:42.398Z,2.53
2022-10-25T21:09:53.915Z,1.85
2022-10-25T21:14:54.679Z,1.90
2022-10-25T21:19:56.363Z,1.60
2022-10-25T21:24:57.089Z,1.70
2022-10-25T21:29:57.825Z,2.20
2022-10-25T21:34:58.553Z,1.83
2022-10-25T21:39:59.313Z,1.65
2022-10-25T21:45:00.046Z,2.45
2022-10-25T21:50:04.084Z,1.20
2022-10-25T21:55:05.899Z,2.00
2022-10-25T22:00:08.276Z,1.45
2022-10-25T22:05:13.573Z,1.40
2022-10-25T22:10:14.501Z,1.20
2022-10-25T22:15:15.563Z,1.12
2022-10-25T22:20:16.445Z,1.00
2022-10-25T22:25:17.207Z,1.33
2022-10-25T22:30:17.979Z,1.67
2022-10-25T22:35:18.716Z,1.10
2022-10-25T22:40:19.439Z,1.23
2022-10-25T22:45:20.208Z,1.30
2022-10-25T22:50:21.025Z,1.67
2022-10-25T22:55:22.218Z,1.73
2022-10-25T23:00:22.981Z,1.52
2022-10-25T23:05:23.750Z,1.40
2022-10-25T23:10:24.465Z,1.40
2022-10-25T23:15:25.208Z,2.67
2022-10-25T23:20:26.131Z,2.08
2022-10-25T23:25:26.862Z,2.28
2022-10-25T23:30:32.676Z,2.80
2022-10-25T23:35:33.884Z,3.42
2022-10-25T23:40:34.653Z,2.30
2022-10-25T23:45:35.369Z,3.67
2022-10-25T23:50:36.347Z,2.62
2022-10-25T23:55:37.964Z,2.70
